Time;durP1;ratioP1;P1;durP2;ratioP2;P2;SDS_P1;SDS_P2;PMS_P1;PMS_P2;Temp;Humidity;BMP_temperature;BMP_pressure;BME280_temperature;BME280_humidity;BME280_pressure;Samples;Min_cycle;Max_cycle;Signal;HPM_P1;HPM_P2
2021/12/07 00:00:43;;;;;;;13.52;6.07;;;;;;;;;;5068919;28;20114;-78
2021/12/07 00:03:10;;;;;;;14.02;6.70;;;;;;;;;;5072240;28;20057;-79
2021/12/07 00:05:36;;;;;;;11.63;6.07;;;;;;;;;;5071994;28;20518;-80
2021/12/07 00:08:03;;;;;;;12.18;6.07;;;;;;;;;;5074474;28;20079;-79
2021/12/07 00:10:30;;;;;;;13.63;6.80;;;;;;;;;;5070416;28;20053;-80
2021/12/07 00:12:57;;;;;;;14.30;6.32;;;;;;;;;;5062870;28;20053;-80
2021/12/07 00:15:24;;;;;;;11.98;5.68;;;;;;;;;;5070554;28;20132;-80
2021/12/07 00:17:52;;;;;;;13.80;6.72;;;;;;;;;;5067228;28;20048;-79
2021/12/07 00:20:19;;;;;;;16.08;6.97;;;;;;;;;;5070013;28;20053;-80
2021/12/07 00:22:47;;;;;;;13.43;6.75;;;;;;;;;;5069345;28;20037;-79
2021/12/07 00:25:14;;;;;;;14.23;6.93;;;;;;;;;;5072764;28;20052;-80
2021/12/07 00:27:41;;;;;;;13.52;7.05;;;;;;;;;;5070996;28;20053;-79
2021/12/07 00:30:08;;;;;;;14.80;6.72;;;;;;;;;;5067128;28;20942;-80
2021/12/07 00:32:39;;;;;;;15.05;7.03;;;;;;;;;;5071640;28;20595;-79
2021/12/07 00:35:25;;;;;;;17.40;7.57;;;;;;;;;;5072334;28;20508;-79
2021/12/07 00:37:54;;;;;;;15.30;7.13;;;;;;;;;;5071410;28;20575;-80
2021/12/07 00:40:21;;;;;;;14.75;7.35;;;;;;;;;;5066797;28;20476;-79
2021/12/07 00:42:48;;;;;;;14.98;7.10;;;;;;;;;;5073782;28;20053;-80
2021/12/07 00:45:17;;;;;;;14.25;7.22;;;;;;;;;;5069694;28;20053;-80
2021/12/07 00:47:44;;;;;;;17.27;7.70;;;;;;;;;;5070078;28;20053;-80
2021/12/07 00:50:11;;;;;;;16.38;7.53;;;;;;;;;;5071055;28;20063;-79
2021/12/07 00:52:38;;;;;;;14.82;7.22;;;;;;;;;;5071032;28;20106;-78
2021/12/07 00:55:10;;;;;;;17.00;7.40;;;;;;;;;;5071539;28;20107;-80
2021/12/07 00:57:36;;;;;;;17.90;8.30;;;;;;;;;;5069661;28;20056;-80
2021/12/07 01:00:05;;;;;;;16.75;8.38;;;;;;;;;;5077002;28;20057;-78
2021/12/07 01:02:31;;;;;;;17.00;8.20;;;;;;;;;;5069449;28;20423;-79
2021/12/07 01:05:07;;;;;;;20.33;8.95;;;;;;;;;;5070838;28;20056;-77
2021/12/07 01:26:54;;;;;;;19.20;9.32;;;;;;;;;;5065299;28;20068;-79
2021/12/07 01:29:23;;;;;;;21.45;9.65;;;;;;;;;;5071151;28;20075;-79
2021/12/07 01:32:00;;;;;;;19.00;9.52;;;;;;;;;;5069345;28;20049;-80
2021/12/07 01:37:15;;;;;;;22.80;10.25;;;;;;;;;;5070345;28;20201;-80
2021/12/07 01:47:58;;;;;;;27.80;11.60;;;;;;;;;;5070444;28;20401;-80
2021/12/07 01:53:20;;;;;;;27.25;12.40;;;;;;;;;;5065240;28;20122;-79
2021/12/07 02:01:06;;;;;;;27.98;12.55;;;;;;;;;;5069395;28;20106;-78
2021/12/07 02:03:34;;;;;;;28.80;12.63;;;;;;;;;;5070125;28;20111;-79
2021/12/07 02:06:01;;;;;;;27.90;12.02;;;;;;;;;;5070685;28;20608;-79
2021/12/07 02:08:27;;;;;;;28.98;12.30;;;;;;;;;;5079554;28;20064;-80
2021/12/07 02:10:58;;;;;;;32.40;12.88;;;;;;;;;;5073157;28;20099;-79
2021/12/07 02:15:58;;;;;;;31.15;12.93;;;;;;;;;;5071391;28;20067;-80
2021/12/07 02:18:24;;;;;;;30.05;12.20;;;;;;;;;;5072272;28;20524;-80
2021/12/07 02:20:51;;;;;;;29.83;12.30;;;;;;;;;;5071116;28;20057;-79
2021/12/07 02:23:17;;;;;;;33.42;12.35;;;;;;;;;;5073967;28;20056;-81
2021/12/07 02:25:44;;;;;;;32.47;12.52;;;;;;;;;;5071482;28;20115;-80
2021/12/07 02:28:15;;;;;;;30.67;12.68;;;;;;;;;;5071437;28;20080;-79
2021/12/07 02:30:42;;;;;;;30.20;11.68;;;;;;;;;;5071636;28;20053;-80
2021/12/07 02:33:09;;;;;;;30.35;11.63;;;;;;;;;;5072096;28;20053;-79
2021/12/07 02:35:37;;;;;;;32.17;11.82;;;;;;;;;;5072684;28;20150;-80
2021/12/07 02:38:03;;;;;;;32.28;12.32;;;;;;;;;;5071896;28;20059;-79
2021/12/07 02:40:30;;;;;;;27.23;10.65;;;;;;;;;;5070361;28;20559;-81
2021/12/07 02:42:56;;;;;;;26.05;10.45;;;;;;;;;;5068864;28;20048;-80
2021/12/07 02:45:23;;;;;;;25.10;10.20;;;;;;;;;;5071250;28;20079;-80
2021/12/07 02:47:49;;;;;;;28.08;10.00;;;;;;;;;;5071752;28;20057;-79
2021/12/07 02:50:16;;;;;;;25.77;10.57;;;;;;;;;;5069912;28;20057;-80
2021/12/07 02:52:43;;;;;;;23.60;9.00;;;;;;;;;;5070216;28;20582;-81
2021/12/07 02:55:10;;;;;;;32.38;8.95;;;;;;;;;;5071216;28;20057;-79
2021/12/07 02:57:36;;;;;;;29.70;9.85;;;;;;;;;;5076509;28;20576;-80
2021/12/07 03:00:12;;;;;;;29.15;9.18;;;;;;;;;;5071177;28;20545;-79
2021/12/07 03:02:47;;;;;;;27.55;7.88;;;;;;;;;;5070221;28;20487;-80
2021/12/07 03:06:12;;;;;;;21.38;7.65;;;;;;;;;;5071397;28;20060;-80
2021/12/07 03:27:24;;;;;;;16.23;3.45;;;;;;;;;;5066369;28;20049;-79
2021/12/07 03:29:50;;;;;;;13.82;3.22;;;;;;;;;;5070345;28;20084;-79
2021/12/07 03:32:17;;;;;;;13.70;3.45;;;;;;;;;;5077770;28;20060;-81
2021/12/07 03:34:44;;;;;;;11.05;3.20;;;;;;;;;;5072814;28;20110;-79
2021/12/07 03:37:10;;;;;;;15.73;2.88;;;;;;;;;;5071732;28;20114;-78
2021/12/07 03:39:36;;;;;;;14.88;2.92;;;;;;;;;;5072165;28;20056;-79
2021/12/07 03:42:03;;;;;;;9.38;2.15;;;;;;;;;;5072447;28;20049;-80
2021/12/07 03:44:30;;;;;;;13.50;2.50;;;;;;;;;;5087534;28;20572;-81
2021/12/07 03:46:56;;;;;;;14.45;2.55;;;;;;;;;;5064109;28;20053;-79
2021/12/07 03:49:23;;;;;;;11.35;3.20;;;;;;;;;;5070486;28;20111;-79
2021/12/07 03:51:49;;;;;;;10.82;1.92;;;;;;;;;;5069452;28;20912;-80
2021/12/07 03:54:16;;;;;;;9.82;1.90;;;;;;;;;;5070616;28;20069;-81
2021/12/07 03:56:42;;;;;;;12.77;2.80;;;;;;;;;;5068676;28;20071;-79
2021/12/07 03:59:08;;;;;;;12.13;1.75;;;;;;;;;;5070441;28;20745;-80
2021/12/07 04:01:35;;;;;;;7.30;1.90;;;;;;;;;;5069425;28;20671;-79
2021/12/07 04:04:03;;;;;;;7.20;1.90;;;;;;;;;;5072183;28;20136;-79
2021/12/07 04:06:29;;;;;;;10.02;2.42;;;;;;;;;;5078732;28;20490;-80
2021/12/07 04:08:56;;;;;;;11.70;2.45;;;;;;;;;;5071065;28;20057;-80
2021/12/07 04:11:22;;;;;;;11.55;2.08;;;;;;;;;;5066843;28;20080;-79
2021/12/07 04:13:48;;;;;;;7.72;1.80;;;;;;;;;;5064227;28;20864;-79
2021/12/07 04:16:16;;;;;;;12.02;1.80;;;;;;;;;;5066207;28;20222;-79
2021/12/07 04:18:42;;;;;;;9.73;1.80;;;;;;;;;;5070364;28;20048;-79
2021/12/07 04:21:08;;;;;;;12.45;2.00;;;;;;;;;;5070178;28;20053;-79
2021/12/07 04:23:35;;;;;;;10.02;2.30;;;;;;;;;;5063489;28;20092;-79
2021/12/07 04:26:06;;;;;;;10.15;2.50;;;;;;;;;;5071078;28;20714;-80
2021/12/07 04:28:32;;;;;;;10.15;1.88;;;;;;;;;;5069169;28;20053;-80
2021/12/07 04:30:59;;;;;;;11.52;2.42;;;;;;;;;;5069735;28;20053;-78
2021/12/07 04:33:29;;;;;;;14.32;2.70;;;;;;;;;;5070134;28;20045;-80
2021/12/07 04:35:56;;;;;;;10.32;1.98;;;;;;;;;;5070541;28;20049;-80
2021/12/07 04:38:23;;;;;;;8.95;1.90;;;;;;;;;;5069303;28;20053;-78
2021/12/07 04:40:50;;;;;;;13.68;2.13;;;;;;;;;;5073258;28;20091;-79
2021/12/07 04:43:16;;;;;;;8.57;1.70;;;;;;;;;;5069386;28;20114;-79
2021/12/07 04:57:37;;;;;;;9.07;1.65;;;;;;;;;;5071126;28;20526;-80
2021/12/07 04:59:00;;;;;;;13.02;1.98;;;;;;;;;;5064589;28;20072;-80
2021/12/07 05:01:26;;;;;;;17.00;2.22;;;;;;;;;;5069927;28;20053;-78
2021/12/07 05:03:56;;;;;;;15.50;2.10;;;;;;;;;;5062777;28;20102;-79
2021/12/07 05:06:27;;;;;;;8.43;1.90;;;;;;;;;;5063688;28;20053;-78
2021/12/07 05:09:03;;;;;;;13.45;2.28;;;;;;;;;;5061512;28;20061;-80
2021/12/07 05:11:52;;;;;;;15.23;2.42;;;;;;;;;;5065975;28;20542;-79
2021/12/07 05:14:22;;;;;;;9.77;2.60;;;;;;;;;;5069027;28;20053;-80
2021/12/07 05:17:02;;;;;;;13.93;2.13;;;;;;;;;;5063307;28;20053;-79
2021/12/07 05:38:34;;;;;;;17.75;2.85;;;;;;;;;;5070767;28;20543;-79
2021/12/07 05:41:00;;;;;;;16.17;2.75;;;;;;;;;;5067812;28;20053;-79
2021/12/07 05:43:26;;;;;;;10.25;2.47;;;;;;;;;;5070334;28;20049;-80
2021/12/07 05:45:54;;;;;;;26.65;7.72;;;;;;;;;;5070133;28;20096;-79
2021/12/07 05:48:20;;;;;;;17.77;4.60;;;;;;;;;;5070117;28;20147;-80
2021/12/07 05:50:46;;;;;;;18.42;4.07;;;;;;;;;;5069348;28;20119;-79
2021/12/07 05:53:13;;;;;;;16.40;3.72;;;;;;;;;;5068633;28;20562;-79
2021/12/07 05:55:40;;;;;;;12.52;3.85;;;;;;;;;;5071335;28;20053;-81
2021/12/07 05:58:12;;;;;;;12.23;3.30;;;;;;;;;;5061467;28;20128;-81
2021/12/07 06:00:42;;;;;;;15.10;3.90;;;;;;;;;;5066346;28;20053;-81
2021/12/07 06:03:09;;;;;;;13.55;3.28;;;;;;;;;;5069170;28;20056;-80
2021/12/07 06:05:36;;;;;;;9.93;3.17;;;;;;;;;;5068695;28;20056;-80
2021/12/07 06:08:03;;;;;;;16.58;3.55;;;;;;;;;;5070334;28;20060;-80
2021/12/07 06:10:30;;;;;;;17.90;3.28;;;;;;;;;;5069834;28;20079;-81
2021/12/07 06:12:57;;;;;;;14.48;3.53;;;;;;;;;;5067790;28;20053;-81
2021/12/07 06:15:24;;;;;;;16.85;3.70;;;;;;;;;;5064570;28;20131;-81
2021/12/07 06:17:51;;;;;;;20.02;3.80;;;;;;;;;;5069216;28;20095;-80
2021/12/07 06:20:18;;;;;;;15.80;3.70;;;;;;;;;;5071376;28;20057;-81
2021/12/07 06:23:04;;;;;;;9.52;3.70;;;;;;;;;;5089748;28;20081;-81
2021/12/07 06:25:31;;;;;;;16.73;4.15;;;;;;;;;;5068436;28;20088;-81
2021/12/07 06:27:57;;;;;;;22.05;4.47;;;;;;;;;;5065904;28;20049;-81
2021/12/07 06:30:23;;;;;;;14.18;4.13;;;;;;;;;;5068806;28;20057;-80
2021/12/07 06:32:50;;;;;;;23.10;4.35;;;;;;;;;;5069507;28;20057;-81
2021/12/07 06:35:16;;;;;;;18.08;4.18;;;;;;;;;;5072686;28;20057;-81
2021/12/07 06:37:43;;;;;;;12.27;4.13;;;;;;;;;;5071158;28;20053;-80
2021/12/07 06:40:15;;;;;;;23.50;4.25;;;;;;;;;;5078483;28;20076;-80
2021/12/07 06:42:41;;;;;;;20.50;4.10;;;;;;;;;;5069995;28;20049;-81
2021/12/07 06:45:08;;;;;;;18.42;3.97;;;;;;;;;;5068623;28;20126;-81
2021/12/07 06:47:35;;;;;;;17.75;3.88;;;;;;;;;;5069136;28;20068;-80
2021/12/07 06:50:06;;;;;;;15.93;3.90;;;;;;;;;;5066920;28;20584;-81
2021/12/07 06:52:32;;;;;;;23.10;4.22;;;;;;;;;;5066484;28;20573;-81
2021/12/07 06:54:59;;;;;;;21.70;4.05;;;;;;;;;;5070026;28;20080;-79
2021/12/07 06:57:25;;;;;;;11.65;3.63;;;;;;;;;;5077751;28;20323;-81
2021/12/07 06:59:52;;;;;;;13.82;3.70;;;;;;;;;;5069707;28;20053;-81
2021/12/07 07:02:19;;;;;;;17.20;3.80;;;;;;;;;;5063365;28;20061;-80
2021/12/07 07:04:46;;;;;;;17.10;4.20;;;;;;;;;;5066882;28;20151;-80
2021/12/07 07:07:12;;;;;;;16.75;3.97;;;;;;;;;;5074748;28;20115;-78
2021/12/07 07:09:38;;;;;;;18.70;4.15;;;;;;;;;;5067470;28;20103;-80
2021/12/07 07:12:05;;;;;;;15.38;4.13;;;;;;;;;;5069564;28;20061;-80
2021/12/07 07:14:31;;;;;;;20.88;4.40;;;;;;;;;;5074606;28;20537;-80
2021/12/07 07:16:58;;;;;;;16.65;3.58;;;;;;;;;;5069422;28;20581;-80
2021/12/07 07:19:24;;;;;;;13.90;3.65;;;;;;;;;;5072061;28;20114;-80
2021/12/07 07:21:51;;;;;;;22.27;4.10;;;;;;;;;;5075072;28;20083;-81
2021/12/07 07:24:17;;;;;;;12.18;3.67;;;;;;;;;;5072481;28;20111;-81
2021/12/07 07:26:43;;;;;;;17.13;3.53;;;;;;;;;;5073211;28;20099;-80
2021/12/07 07:29:10;;;;;;;18.50;3.33;;;;;;;;;;5071406;28;20110;-80
2021/12/07 07:31:40;;;;;;;18.92;3.92;;;;;;;;;;5071181;28;20060;-81
2021/12/07 07:34:06;;;;;;;13.30;3.72;;;;;;;;;;5068208;28;20061;-80
2021/12/07 07:36:33;;;;;;;12.95;4.32;;;;;;;;;;5069952;28;20420;-79
2021/12/07 07:38:59;;;;;;;13.52;3.95;;;;;;;;;;5073013;28;20057;-80
2021/12/07 07:41:26;;;;;;;21.80;4.47;;;;;;;;;;5070873;28;20076;-80
2021/12/07 07:43:52;;;;;;;21.45;4.60;;;;;;;;;;5069659;28;20119;-81
2021/12/07 07:46:19;;;;;;;19.65;4.25;;;;;;;;;;5074618;28;20064;-79
2021/12/07 07:48:45;;;;;;;13.73;4.13;;;;;;;;;;5064364;28;20526;-80
2021/12/07 07:51:12;;;;;;;12.85;4.63;;;;;;;;;;5071232;28;20072;-80
2021/12/07 07:53:39;;;;;;;39.47;7.18;;;;;;;;;;5072606;28;20756;-79
2021/12/07 07:56:05;;;;;;;18.08;4.93;;;;;;;;;;5074591;28;20049;-80
2021/12/07 07:58:31;;;;;;;17.52;4.72;;;;;;;;;;5070887;28;20041;-80
2021/12/07 08:00:58;;;;;;;17.23;4.68;;;;;;;;;;5071390;28;20052;-79
2021/12/07 08:03:25;;;;;;;16.42;5.10;;;;;;;;;;5068723;28;20132;-81
2021/12/07 08:05:51;;;;;;;15.25;4.90;;;;;;;;;;5069842;28;20053;-81
2021/12/07 08:08:19;;;;;;;21.13;5.10;;;;;;;;;;5072145;28;20060;-80
2021/12/07 08:10:46;;;;;;;17.60;4.38;;;;;;;;;;5064435;28;20099;-79
2021/12/07 08:13:14;;;;;;;25.17;5.65;;;;;;;;;;5061589;28;20057;-80
2021/12/07 08:15:43;;;;;;;15.02;5.30;;;;;;;;;;5071349;28;20076;-81
2021/12/07 08:18:10;;;;;;;20.73;5.95;;;;;;;;;;5068645;28;20057;-81
2021/12/07 08:20:37;;;;;;;23.20;5.60;;;;;;;;;;5072818;28;20053;-81
2021/12/07 08:23:04;;;;;;;22.63;4.32;;;;;;;;;;5070047;28;20053;-81
2021/12/07 08:25:32;;;;;;;18.73;5.18;;;;;;;;;;5070171;28;20517;-81
2021/12/07 08:27:58;;;;;;;16.30;4.80;;;;;;;;;;5065292;28;20061;-79
2021/12/07 08:30:25;;;;;;;23.10;4.63;;;;;;;;;;5072100;28;20104;-80
2021/12/07 08:32:51;;;;;;;12.88;3.90;;;;;;;;;;5071824;28;20049;-79
2021/12/07 08:35:18;;;;;;;13.68;4.15;;;;;;;;;;5072564;28;20057;-81
2021/12/07 08:37:49;;;;;;;13.13;4.40;;;;;;;;;;5068826;28;20057;-80
2021/12/07 08:40:17;;;;;;;18.30;5.00;;;;;;;;;;5071349;28;20056;-80
2021/12/07 08:42:44;;;;;;;18.85;4.00;;;;;;;;;;5070295;28;20041;-81
2021/12/07 08:45:10;;;;;;;24.80;4.88;;;;;;;;;;5070052;28;20111;-81
2021/12/07 08:47:37;;;;;;;23.98;4.53;;;;;;;;;;5076902;28;20061;-81
2021/12/07 08:50:10;;;;;;;23.40;4.90;;;;;;;;;;5071876;28;20136;-80
2021/12/07 08:52:37;;;;;;;20.40;5.20;;;;;;;;;;5071733;28;20107;-81
2021/12/07 09:00:16;;;;;;;19.00;4.03;;;;;;;;;;5072211;28;20091;-82
2021/12/07 09:02:43;;;;;;;19.77;4.70;;;;;;;;;;5070473;28;20092;-80
2021/12/07 09:05:10;;;;;;;16.67;4.80;;;;;;;;;;5069759;28;20140;-81
2021/12/07 09:07:36;;;;;;;26.17;9.63;;;;;;;;;;5071455;28;20096;-81
2021/12/07 09:10:04;;;;;;;26.35;11.68;;;;;;;;;;5070203;28;20123;-81
2021/12/07 09:12:30;;;;;;;18.33;6.03;;;;;;;;;;5066302;28;20123;-80
2021/12/07 09:14:57;;;;;;;23.58;5.78;;;;;;;;;;5069314;28;20045;-80
2021/12/07 09:17:23;;;;;;;16.70;5.30;;;;;;;;;;5065501;28;20207;-79
2021/12/07 09:19:50;;;;;;;22.90;5.28;;;;;;;;;;5068633;28;20132;-79
2021/12/07 09:22:16;;;;;;;30.13;7.53;;;;;;;;;;5069458;28;20057;-82
2021/12/07 09:25:03;;;;;;;19.83;5.72;;;;;;;;;;5070067;28;20514;-82
2021/12/07 09:27:29;;;;;;;19.52;5.97;;;;;;;;;;5070360;28;20514;-80
2021/12/07 09:30:01;;;;;;;29.27;6.95;;;;;;;;;;5075901;28;20056;-81
2021/12/07 09:32:27;;;;;;;20.92;6.45;;;;;;;;;;5066547;28;20115;-82
2021/12/07 09:34:54;;;;;;;21.70;6.45;;;;;;;;;;5071251;28;20092;-80
2021/12/07 09:37:21;;;;;;;23.35;6.40;;;;;;;;;;5061399;28;20053;-81
2021/12/07 09:39:48;;;;;;;26.85;7.50;;;;;;;;;;5068527;28;20052;-81
2021/12/07 09:42:14;;;;;;;28.15;8.02;;;;;;;;;;5069911;28;20205;-82
2021/12/07 09:44:40;;;;;;;22.15;8.15;;;;;;;;;;5070334;28;20057;-80
2021/12/07 09:47:07;;;;;;;24.95;7.03;;;;;;;;;;5069407;28;20080;-81
2021/12/07 09:49:33;;;;;;;28.05;8.80;;;;;;;;;;5071102;28;20995;-81
2021/12/07 09:52:00;;;;;;;27.05;7.82;;;;;;;;;;5069191;28;20065;-81
2021/12/07 09:54:26;;;;;;;23.55;8.45;;;;;;;;;;5061804;28;20053;-82
2021/12/07 09:56:52;;;;;;;27.85;7.90;;;;;;;;;;5069912;28;20466;-81
2021/12/07 09:59:19;;;;;;;23.63;8.13;;;;;;;;;;5070041;28;20088;-81
2021/12/07 10:01:45;;;;;;;21.17;7.55;;;;;;;;;;5069034;28;20045;-81
2021/12/07 10:04:12;;;;;;;24.13;7.72;;;;;;;;;;5071042;28;20156;-81
2021/12/07 10:06:38;;;;;;;21.80;8.57;;;;;;;;;;5068613;28;20080;-80
2021/12/07 10:09:05;;;;;;;21.80;8.23;;;;;;;;;;5069074;28;20049;-81
2021/12/07 10:11:32;;;;;;;24.73;7.88;;;;;;;;;;5068635;28;20063;-81
2021/12/07 10:14:01;;;;;;;26.45;8.43;;;;;;;;;;5069024;28;20057;-81
2021/12/07 10:16:28;;;;;;;23.30;6.57;;;;;;;;;;5068441;28;20060;-81
2021/12/07 10:18:56;;;;;;;23.23;8.48;;;;;;;;;;5069524;28;20064;-81
2021/12/07 10:21:26;;;;;;;20.90;7.68;;;;;;;;;;5063390;28;20103;-80
2021/12/07 10:23:55;;;;;;;30.35;8.32;;;;;;;;;;5061413;28;20073;-80
2021/12/07 10:26:23;;;;;;;24.40;7.32;;;;;;;;;;5069038;28;20076;-79
2021/12/07 10:28:52;;;;;;;25.50;7.93;;;;;;;;;;5073425;28;20244;-80
2021/12/07 10:31:37;;;;;;;27.27;7.47;;;;;;;;;;5072815;28;20057;-79
2021/12/07 10:34:06;;;;;;;25.45;8.18;;;;;;;;;;5068816;28;20511;-79
2021/12/07 10:36:35;;;;;;;26.60;8.02;;;;;;;;;;5072256;28;20082;-81
2021/12/07 10:39:18;;;;;;;26.83;8.05;;;;;;;;;;5072768;28;20096;-79
2021/12/07 10:41:48;;;;;;;26.98;7.65;;;;;;;;;;5072512;28;20512;-80
2021/12/07 10:44:16;;;;;;;22.48;7.85;;;;;;;;;;5071380;28;20107;-80
2021/12/07 10:46:42;;;;;;;30.75;9.38;;;;;;;;;;5073213;28;20053;-80
2021/12/07 10:49:10;;;;;;;23.42;8.30;;;;;;;;;;5071289;28;20514;-80
2021/12/07 10:51:37;;;;;;;22.85;7.55;;;;;;;;;;5065482;28;20069;-81
2021/12/07 10:54:04;;;;;;;26.15;8.40;;;;;;;;;;5080734;28;20115;-80
2021/12/07 10:56:35;;;;;;;22.80;7.82;;;;;;;;;;5064274;28;20097;-78
2021/12/07 10:59:05;;;;;;;21.52;7.95;;;;;;;;;;5071205;28;20578;-80
2021/12/07 11:01:36;;;;;;;24.67;8.10;;;;;;;;;;5073623;28;20052;-79
2021/12/07 11:04:22;;;;;;;25.70;7.50;;;;;;;;;;5073180;28;20059;-80
2021/12/07 11:07:09;;;;;;;23.00;7.63;;;;;;;;;;5068155;28;20488;-79
2021/12/07 11:10:17;;;;;;;25.95;8.85;;;;;;;;;;5064361;28;20764;-77
2021/12/07 11:12:45;;;;;;;27.70;9.52;;;;;;;;;;5065885;28;20053;-77
2021/12/07 11:15:17;;;;;;;24.20;7.90;;;;;;;;;;5069114;28;20057;-78
2021/12/07 11:17:44;;;;;;;23.23;8.05;;;;;;;;;;5068015;28;20092;-78
2021/12/07 11:20:16;;;;;;;22.30;7.63;;;;;;;;;;5070460;28;20048;-78
2021/12/07 11:22:46;;;;;;;25.08;8.57;;;;;;;;;;5063208;28;20084;-78
2021/12/07 11:25:31;;;;;;;30.63;8.40;;;;;;;;;;5069872;28;20115;-78
2021/12/07 11:30:44;;;;;;;22.17;8.02;;;;;;;;;;5067673;28;20100;-78
2021/12/07 11:33:21;;;;;;;33.83;7.15;;;;;;;;;;5070516;28;20590;-78
2021/12/07 11:35:49;;;;;;;17.60;6.28;;;;;;;;;;5069219;28;20084;-77
2021/12/07 11:38:27;;;;;;;22.27;6.97;;;;;;;;;;5068134;28;20045;-78
2021/12/07 11:40:53;;;;;;;19.85;6.60;;;;;;;;;;5069257;28;20154;-78
2021/12/07 11:43:20;;;;;;;21.70;6.85;;;;;;;;;;5068370;28;20053;-78
2021/12/07 11:45:46;;;;;;;17.08;6.45;;;;;;;;;;5068508;28;20057;-77
2021/12/07 11:48:14;;;;;;;31.05;6.72;;;;;;;;;;5063683;28;20060;-77
2021/12/07 11:50:46;;;;;;;23.95;6.82;;;;;;;;;;5061662;28;20044;-78
2021/12/07 11:53:17;;;;;;;18.30;5.60;;;;;;;;;;5066796;28;20084;-78
2021/12/07 11:55:45;;;;;;;18.33;6.00;;;;;;;;;;5067124;28;20087;-78
2021/12/07 11:58:11;;;;;;;17.33;5.30;;;;;;;;;;5068534;28;20049;-78
2021/12/07 12:00:40;;;;;;;15.88;5.07;;;;;;;;;;5064037;28;20053;-78
2021/12/07 12:03:08;;;;;;;16.08;5.10;;;;;;;;;;5068755;28;20053;-78
2021/12/07 12:05:35;;;;;;;20.27;5.00;;;;;;;;;;5072018;28;20712;-79
2021/12/07 12:08:07;;;;;;;13.40;4.68;;;;;;;;;;5070488;28;20056;-78
2021/12/07 12:10:34;;;;;;;12.93;4.82;;;;;;;;;;5067059;28;20064;-78
2021/12/07 12:13:21;;;;;;;15.63;4.78;;;;;;;;;;5055401;28;20080;-78
2021/12/07 12:15:55;;;;;;;14.27;4.70;;;;;;;;;;5070667;28;20118;-79
2021/12/07 12:18:40;;;;;;;14.00;4.70;;;;;;;;;;5070972;28;20561;-79
2021/12/07 12:21:07;;;;;;;14.50;4.68;;;;;;;;;;5071941;28;20057;-79
2021/12/07 12:23:36;;;;;;;16.75;5.20;;;;;;;;;;5068836;28;20096;-79
2021/12/07 12:26:07;;;;;;;16.15;5.47;;;;;;;;;;5070265;28;20037;-78
2021/12/07 12:28:42;;;;;;;16.15;5.15;;;;;;;;;;5071129;28;20057;-78
2021/12/07 12:31:09;;;;;;;16.17;4.93;;;;;;;;;;5072585;28;20061;-79
2021/12/07 12:33:46;;;;;;;18.27;5.65;;;;;;;;;;5070704;28;20140;-79
2021/12/07 12:36:12;;;;;;;15.55;4.50;;;;;;;;;;5069063;28;20573;-78
2021/12/07 12:38:46;;;;;;;12.48;4.75;;;;;;;;;;5070442;28;20084;-78
2021/12/07 12:41:14;;;;;;;17.42;5.13;;;;;;;;;;5070646;28;20106;-78
2021/12/07 12:43:51;;;;;;;14.90;4.88;;;;;;;;;;5066688;28;20454;-79
2021/12/07 12:46:19;;;;;;;14.40;4.75;;;;;;;;;;5066793;28;20045;-79
2021/12/07 12:48:50;;;;;;;13.52;4.50;;;;;;;;;;5069343;28;20056;-78
2021/12/07 12:51:20;;;;;;;11.60;4.03;;;;;;;;;;5070023;28;20072;-79
2021/12/07 12:53:47;;;;;;;13.48;3.72;;;;;;;;;;5070605;28;20041;-78
2021/12/07 12:56:24;;;;;;;13.48;4.20;;;;;;;;;;5069760;28;20110;-79
2021/12/07 12:58:51;;;;;;;13.73;3.92;;;;;;;;;;5069898;28;20049;-78
2021/12/07 13:01:26;;;;;;;13.93;3.53;;;;;;;;;;5069257;28;20079;-78
2021/12/07 13:03:55;;;;;;;21.00;4.95;;;;;;;;;;5063301;28;20139;-78
2021/12/07 13:06:40;;;;;;;14.60;4.25;;;;;;;;;;5057282;28;20062;-78
2021/12/07 13:09:24;;;;;;;13.15;4.80;;;;;;;;;;5065696;28;20088;-79
2021/12/07 13:11:55;;;;;;;15.02;4.53;;;;;;;;;;5068267;28;20056;-78
2021/12/07 13:14:21;;;;;;;18.23;4.57;;;;;;;;;;5068267;28;20053;-78
2021/12/07 13:16:49;;;;;;;14.77;4.40;;;;;;;;;;5068276;28;20141;-79
2021/12/07 13:19:15;;;;;;;12.35;3.72;;;;;;;;;;5069522;28;20083;-84
2021/12/07 13:21:43;;;;;;;11.90;4.10;;;;;;;;;;5066588;28;20144;-78
2021/12/07 13:24:11;;;;;;;12.40;4.30;;;;;;;;;;5067387;28;20052;-79
2021/12/07 13:26:41;;;;;;;13.45;3.95;;;;;;;;;;5066105;28;20122;-79
2021/12/07 13:29:12;;;;;;;11.23;3.88;;;;;;;;;;5067750;28;20057;-79
2021/12/07 13:31:40;;;;;;;15.80;4.00;;;;;;;;;;5062666;28;20088;-78
2021/12/07 13:34:07;;;;;;;12.50;3.80;;;;;;;;;;5066925;28;20487;-79
2021/12/07 13:36:38;;;;;;;17.20;4.55;;;;;;;;;;5070185;28;20071;-79
2021/12/07 13:39:06;;;;;;;11.43;3.63;;;;;;;;;;5058835;28;20937;-79
2021/12/07 13:41:33;;;;;;;17.85;3.90;;;;;;;;;;5060443;28;20064;-79
2021/12/07 13:43:59;;;;;;;12.82;3.60;;;;;;;;;;5068531;28;20504;-79
2021/12/07 13:46:27;;;;;;;17.40;3.97;;;;;;;;;;5067263;28;20053;-79
2021/12/07 13:49:04;;;;;;;13.90;3.63;;;;;;;;;;5067893;28;20060;-78
2021/12/07 13:51:31;;;;;;;14.32;4.22;;;;;;;;;;5068525;28;20079;-79
2021/12/07 13:54:00;;;;;;;10.82;3.72;;;;;;;;;;5068151;28;20049;-78
2021/12/07 13:56:27;;;;;;;13.48;4.00;;;;;;;;;;5068165;28;20057;-78
2021/12/07 13:58:58;;;;;;;14.13;3.95;;;;;;;;;;5053431;28;20064;-78
2021/12/07 14:01:26;;;;;;;17.90;3.90;;;;;;;;;;5063501;28;20049;-78
2021/12/07 14:03:53;;;;;;;10.23;4.15;;;;;;;;;;5071898;28;20107;-78
2021/12/07 14:06:19;;;;;;;16.58;5.05;;;;;;;;;;5071486;28;20057;-78
2021/12/07 14:08:48;;;;;;;16.80;4.18;;;;;;;;;;5068476;28;20176;-79
2021/12/07 14:11:15;;;;;;;14.05;3.85;;;;;;;;;;5066890;28;20053;-78
2021/12/07 14:13:43;;;;;;;13.85;3.85;;;;;;;;;;5075761;28;20161;-78
2021/12/07 14:16:10;;;;;;;17.38;4.57;;;;;;;;;;5071864;28;20057;-78
2021/12/07 14:18:38;;;;;;;13.32;4.00;;;;;;;;;;5074305;28;20053;-79
2021/12/07 14:21:06;;;;;;;18.25;3.75;;;;;;;;;;5070332;28;20037;-79
2021/12/07 14:23:43;;;;;;;15.00;4.43;;;;;;;;;;5073020;28;20088;-78
2021/12/07 14:26:14;;;;;;;15.25;4.05;;;;;;;;;;5070608;28;20142;-79
2021/12/07 14:28:43;;;;;;;16.33;4.20;;;;;;;;;;5075403;28;20060;-79
2021/12/07 14:31:10;;;;;;;11.73;3.60;;;;;;;;;;5065601;28;20108;-79
2021/12/07 14:33:42;;;;;;;17.85;4.28;;;;;;;;;;5061207;28;20126;-79
2021/12/07 14:36:09;;;;;;;12.82;3.30;;;;;;;;;;5079353;28;20053;-78
2021/12/07 14:38:36;;;;;;;14.07;3.50;;;;;;;;;;5065889;28;20080;-78
2021/12/07 14:41:05;;;;;;;15.15;4.07;;;;;;;;;;5076823;28;20671;-78
2021/12/07 14:43:31;;;;;;;13.13;3.63;;;;;;;;;;5061529;28;20516;-78
2021/12/07 14:46:02;;;;;;;11.20;3.20;;;;;;;;;;5070133;28;20053;-78
2021/12/07 14:48:29;;;;;;;16.02;4.63;;;;;;;;;;5068238;28;20964;-78
2021/12/07 14:51:10;;;;;;;14.75;3.80;;;;;;;;;;5066950;28;20600;-78
2021/12/07 14:53:38;;;;;;;12.70;3.50;;;;;;;;;;5061002;28;20072;-78
2021/12/07 14:56:06;;;;;;;13.38;3.45;;;;;;;;;;5071916;28;20049;-78
2021/12/07 14:58:33;;;;;;;13.80;3.85;;;;;;;;;;5068655;28;20076;-79
2021/12/07 15:01:06;;;;;;;13.07;3.53;;;;;;;;;;5063467;28;20044;-78
2021/12/07 15:03:34;;;;;;;18.35;3.97;;;;;;;;;;5078812;28;20140;-78
2021/12/07 15:06:02;;;;;;;13.88;3.92;;;;;;;;;;5061901;28;20046;-79
2021/12/07 15:08:28;;;;;;;24.17;3.60;;;;;;;;;;5062836;28;20607;-79
2021/12/07 15:10:56;;;;;;;16.73;3.95;;;;;;;;;;5064446;28;20084;-77
2021/12/07 15:13:23;;;;;;;12.05;3.85;;;;;;;;;;5064164;28;20080;-79
2021/12/07 15:15:51;;;;;;;13.85;3.58;;;;;;;;;;5070249;28;20110;-78
2021/12/07 15:18:17;;;;;;;12.75;3.35;;;;;;;;;;5068236;28;20080;-78
2021/12/07 15:20:47;;;;;;;15.43;3.90;;;;;;;;;;5065626;28;20064;-79
2021/12/07 15:23:17;;;;;;;19.17;3.92;;;;;;;;;;5072335;28;20107;-79
2021/12/07 15:25:47;;;;;;;12.43;4.28;;;;;;;;;;5063275;28;20057;-79
2021/12/07 15:28:13;;;;;;;12.75;3.25;;;;;;;;;;5072786;28;20045;-78
2021/12/07 15:30:40;;;;;;;13.57;3.83;;;;;;;;;;5068401;28;20057;-78
2021/12/07 15:33:06;;;;;;;8.93;3.42;;;;;;;;;;5066903;28;20075;-78
2021/12/07 15:35:32;;;;;;;16.38;3.60;;;;;;;;;;5070034;28;20885;-78
2021/12/07 15:37:59;;;;;;;15.50;3.80;;;;;;;;;;5069874;28;20169;-78
2021/12/07 15:40:25;;;;;;;8.32;2.72;;;;;;;;;;5069534;28;20053;-78
2021/12/07 15:42:52;;;;;;;16.38;3.47;;;;;;;;;;5064472;28;20065;-78
2021/12/07 15:45:19;;;;;;;19.30;3.38;;;;;;;;;;5066321;28;20099;-78
2021/12/07 15:47:46;;;;;;;13.48;3.22;;;;;;;;;;5071173;28;20049;-79
2021/12/07 15:50:14;;;;;;;8.18;3.10;;;;;;;;;;5072612;28;20158;-82
2021/12/07 15:52:42;;;;;;;13.20;3.28;;;;;;;;;;5065674;28;20099;-80
2021/12/07 15:55:17;;;;;;;12.07;2.97;;;;;;;;;;5064827;28;20061;-78
2021/12/07 15:57:52;;;;;;;13.32;2.40;;;;;;;;;;5070778;28;20049;-79
2021/12/07 16:00:24;;;;;;;11.48;2.83;;;;;;;;;;5078120;28;20053;-80
2021/12/07 16:02:55;;;;;;;9.70;2.80;;;;;;;;;;5067998;28;20234;-78
2021/12/07 16:05:42;;;;;;;11.02;2.60;;;;;;;;;;5070588;28;20541;-80
2021/12/07 16:08:10;;;;;;;15.52;3.45;;;;;;;;;;5068658;28;20076;-79
2021/12/07 16:10:38;;;;;;;14.32;3.30;;;;;;;;;;5065965;28;20053;-80
2021/12/07 16:13:14;;;;;;;10.73;3.25;;;;;;;;;;5070650;28;20052;-81
2021/12/07 16:15:45;;;;;;;10.02;2.88;;;;;;;;;;5061151;28;21125;-80
2021/12/07 16:18:11;;;;;;;;;;;;;;;;;;5085484;28;20071;-80